Spencer, Idaho
Current Conditions -  °F | °C
As of 12:53 PM on Monday 24 Nov 2014 (Local Time) from KRXE Reporting Station
Scattered Clouds Scattered Clouds  
Wind Chill: 29°   Ceiling: Unl
Heat Index: 35°   Visibility: 10mi
Dew Point: 12°   Wind: 7mph
Humidity: 39%   Direction: 300°WNW
Pressure: 30.29"   Gusts: NA
Location:  44.36°N, 112.19°W
Report Text: KRXE 241953Z AUTO 30006KT 10SM SCT075 02/M11 A3029 RMK AO2 SLP282 T00171111
Loading
Personal Weather Stations






























Interactive Weather Map New forecast layout! Learn more

10-Day Weather Forecast

Advertisements
Track Severe Weather on mobile